createdAt,value
2018-11-27T00:00:20.369Z,99.86
2018-11-27T00:01:20.343Z,99.91
2018-11-27T00:02:20.304Z,99.70
2018-11-27T00:03:20.321Z,99.70
2018-11-27T00:04:20.280Z,99.70
2018-11-27T00:05:20.270Z,98.93
2018-11-27T00:06:20.284Z,98.46
2018-11-27T00:07:20.248Z,98.35
2018-11-27T00:08:20.239Z,97.63
2018-11-27T00:09:20.251Z,98.25
2018-11-27T00:10:20.217Z,98.21
2018-11-27T00:11:20.229Z,98.15
2018-11-27T00:12:20.192Z,97.74
2018-11-27T00:13:20.181Z,97.63
2018-11-27T00:14:20.170Z,97.63
2018-11-27T00:15:20.191Z,96.49
2018-11-27T00:16:20.177Z,97.01
2018-11-27T00:17:20.150Z,96.59
2018-11-27T00:18:20.135Z,96.91
2018-11-27T00:19:20.154Z,97.01
2018-11-27T00:20:20.110Z,97.11
2018-11-27T00:21:20.179Z,97.53
2018-11-27T00:22:20.084Z,97.42
2018-11-27T00:23:20.075Z,97.74
2018-11-27T00:24:20.067Z,97.47
2018-11-27T00:25:20.050Z,97.78
2018-11-27T00:26:20.044Z,97.26
2018-11-27T00:27:20.083Z,97.06
2018-11-27T00:28:20.016Z,96.64
2018-11-27T00:29:20.008Z,95.29
2018-11-27T00:30:20.004Z,93.33
2018-11-27T00:31:19.983Z,92.81
2018-11-27T00:32:19.996Z,93.43
2018-11-27T00:33:19.994Z,92.65
2018-11-27T00:34:19.958Z,91.99
2018-11-27T00:35:19.939Z,91.93
2018-11-27T00:36:19.934Z,91.82
2018-11-27T00:37:19.958Z,91.51
2018-11-27T00:38:19.913Z,91.93
2018-11-27T00:39:19.911Z,91.61
2018-11-27T00:40:19.886Z,91.09
2018-11-27T00:41:19.874Z,91.09
2018-11-27T00:42:19.863Z,92.65
2018-11-27T00:43:19.881Z,92.85
2018-11-27T00:44:19.845Z,90.95
2018-11-27T00:45:19.857Z,91.51
2018-11-27T00:46:19.821Z,91.61
2018-11-27T00:47:19.814Z,90.68
2018-11-27T00:48:19.823Z,91.30
2018-11-27T00:49:19.784Z,90.89
2018-11-27T00:50:19.775Z,90.37
2018-11-27T00:51:19.791Z,89.44
2018-11-27T00:52:19.754Z,91.20
2018-11-27T00:53:19.770Z,89.34
2018-11-27T00:54:20.077Z,89.75
2018-11-27T00:55:19.727Z,90.26
2018-11-27T00:56:19.711Z,90.47
2018-11-27T00:57:19.741Z,89.44
2018-11-27T00:58:19.715Z,89.92
2018-11-27T00:59:19.683Z,90.06
2018-11-27T01:00:19.672Z,89.96
2018-11-27T01:01:19.655Z,90.23
2018-11-27T01:02:19.648Z,89.40
2018-11-27T01:03:19.689Z,88.40
2018-11-27T01:04:19.628Z,88.09
2018-11-27T01:05:19.640Z,88.57
2018-11-27T01:06:19.611Z,89.81
2018-11-27T01:07:19.601Z,89.40
2018-11-27T01:08:19.603Z,89.65
2018-11-27T01:09:19.569Z,89.13
2018-11-27T01:10:19.584Z,89.50
2018-11-27T01:11:19.546Z,89.65
2018-11-27T01:12:19.540Z,90.99
2018-11-27T01:13:19.553Z,90.58
2018-11-27T01:14:19.521Z,90.89
2018-11-27T01:15:19.503Z,90.26
2018-11-27T01:16:19.551Z,90.16
2018-11-27T01:17:19.492Z,89.96
2018-11-27T01:18:19.484Z,90.68
2018-11-27T01:19:19.488Z,90.99
2018-11-27T01:20:19.452Z,90.89
2018-11-27T01:21:19.445Z,90.89
2018-11-27T01:22:19.458Z,91.72
2018-11-27T01:23:19.425Z,92.44
2018-11-27T01:24:19.404Z,92.34
2018-11-27T01:25:19.419Z,92.76
2018-11-27T01:26:19.386Z,92.03
2018-11-27T01:27:19.375Z,92.65
2018-11-27T01:28:19.433Z,93.27
2018-11-27T01:29:19.354Z,93.48
2018-11-27T01:30:19.374Z,93.16
2018-11-27T01:31:19.341Z,93.37
2018-11-27T01:32:19.323Z,92.65
2018-11-27T01:33:19.312Z,92.80
2018-11-27T01:34:19.332Z,92.18
2018-11-27T01:35:19.312Z,92.38
2018-11-27T01:36:19.281Z,92.49
2018-11-27T01:37:19.265Z,92.59
2018-11-27T01:38:19.255Z,92.59
2018-11-27T01:39:19.255Z,93.10
2018-11-27T01:40:19.261Z,93.21
2018-11-27T01:41:19.313Z,91.45
2018-11-27T01:42:19.211Z,91.14
2018-11-27T01:43:19.201Z,91.55
2018-11-27T01:44:19.190Z,92.01
2018-11-27T01:45:19.214Z,92.18
2018-11-27T01:46:19.169Z,92.80
2018-11-27T01:47:19.182Z,93.62
2018-11-27T01:48:19.144Z,93.99
2018-11-27T01:49:19.136Z,93.52
2018-11-27T01:50:19.151Z,92.69
2018-11-27T01:51:19.112Z,93.15
2018-11-27T01:52:19.108Z,93.41
2018-11-27T01:53:19.125Z,93.52
2018-11-27T01:54:19.086Z,93.21
2018-11-27T01:55:19.071Z,92.28
2018-11-27T01:56:19.089Z,92.90
2018-11-27T01:57:19.076Z,93.21
2018-11-27T01:58:19.075Z,92.59
2018-11-27T01:59:19.064Z,91.86
2018-11-27T02:00:19.027Z,92.49
2018-11-27T02:01:19.035Z,92.38
2018-11-27T02:02:18.990Z,92.80
2018-11-27T02:03:18.986Z,92.59
2018-11-27T02:04:19.015Z,92.49
2018-11-27T02:05:18.991Z,92.59
2018-11-27T02:06:18.951Z,92.49
2018-11-27T02:07:18.968Z,93.10
2018-11-27T02:08:18.932Z,92.49
2018-11-27T02:09:18.921Z,92.38
2018-11-27T02:10:18.915Z,92.38
2018-11-27T02:11:18.932Z,92.28
2018-11-27T02:12:18.882Z,91.45
2018-11-27T02:13:18.904Z,91.09
2018-11-27T02:14:18.906Z,90.99
2018-11-27T02:15:18.871Z,90.89
2018-11-27T02:16:18.849Z,90.99
2018-11-27T02:17:18.857Z,90.58
2018-11-27T02:18:18.847Z,90.68
2018-11-27T02:19:18.811Z,91.30
2018-11-27T02:20:18.803Z,90.99
2018-11-27T02:21:18.791Z,90.99
2018-11-27T02:22:18.779Z,90.99
2018-11-27T02:23:18.859Z,91.61
2018-11-27T02:24:18.755Z,90.99
2018-11-27T02:25:18.743Z,90.16
2018-11-27T02:26:18.735Z,90.26
2018-11-27T02:27:18.731Z,89.96
2018-11-27T02:28:18.736Z,90.68
2018-11-27T02:29:18.743Z,90.16
2018-11-27T02:30:18.695Z,90.37
2018-11-27T02:31:18.683Z,89.44
2018-11-27T02:32:18.675Z,89.44
2018-11-27T02:33:18.692Z,89.54
2018-11-27T02:34:18.649Z,89.44
2018-11-27T02:35:18.693Z,89.86
2018-11-27T02:36:18.625Z,89.03
2018-11-27T02:37:18.617Z,88.82
2018-11-27T02:38:18.611Z,89.54
2018-11-27T02:39:18.659Z,89.54
2018-11-27T02:40:18.584Z,89.96
2018-11-27T02:41:18.583Z,89.44
2018-11-27T02:42:18.564Z,88.82
2018-11-27T02:43:18.552Z,87.93
2018-11-27T02:44:18.554Z,88.24
2018-11-27T02:45:18.564Z,88.45
2018-11-27T02:46:18.521Z,88.86
2018-11-27T02:47:18.504Z,88.86
2018-11-27T02:48:18.516Z,89.58
2018-11-27T02:49:18.484Z,87.93
2018-11-27T02:50:18.506Z,89.07
2018-11-27T02:51:18.465Z,89.38
2018-11-27T02:52:18.461Z,89.69
2018-11-27T02:53:18.439Z,89.17
2018-11-27T02:54:18.427Z,89.17
2018-11-27T02:55:18.467Z,89.83
2018-11-27T02:56:18.444Z,89.83
2018-11-27T02:57:18.396Z,89.69
2018-11-27T02:58:18.389Z,90.45
2018-11-27T02:59:18.378Z,90.00
2018-11-27T03:00:18.365Z,90.87
2018-11-27T03:01:18.391Z,90.35
2018-11-27T03:02:18.359Z,90.04
2018-11-27T03:03:18.365Z,90.45
2018-11-27T03:04:18.322Z,91.39
2018-11-27T03:05:18.313Z,91.08
2018-11-27T03:06:18.333Z,91.49
2018-11-27T03:07:18.289Z,91.49
2018-11-27T03:08:18.308Z,91.49
2018-11-27T03:09:18.267Z,91.02
2018-11-27T03:10:18.259Z,91.43
2018-11-27T03:11:18.269Z,92.01
2018-11-27T03:12:18.235Z,91.95
2018-11-27T03:13:18.241Z,92.11
2018-11-27T03:14:18.305Z,92.68
2018-11-27T03:15:18.199Z,92.98
2018-11-27T03:16:18.213Z,92.68
2018-11-27T03:17:18.225Z,92.16
2018-11-27T03:18:18.174Z,92.47
2018-11-27T03:19:18.162Z,92.36
2018-11-27T03:20:18.191Z,91.43
2018-11-27T03:21:18.173Z,92.16
2018-11-27T03:22:18.136Z,92.57
2018-11-27T03:23:18.119Z,92.26
2018-11-27T03:24:18.105Z,92.47
2018-11-27T03:25:18.131Z,92.26
2018-11-27T03:26:18.085Z,91.64
2018-11-27T03:27:18.113Z,92.16
2018-11-27T03:28:18.062Z,92.16
2018-11-27T03:29:18.056Z,92.20
2018-11-27T03:30:18.046Z,92.16
2018-11-27T03:31:18.059Z,91.27
2018-11-27T03:32:18.031Z,91.58
2018-11-27T03:33:18.042Z,91.58
2018-11-27T03:34:18.006Z,91.37
2018-11-27T03:35:17.995Z,91.58
2018-11-27T03:36:17.983Z,91.47
2018-11-27T03:37:17.974Z,91.47
2018-11-27T03:38:18.010Z,91.06
2018-11-27T03:39:17.952Z,91.89
2018-11-27T03:40:17.951Z,92.30
2018-11-27T03:41:17.928Z,92.10
2018-11-27T03:42:17.919Z,91.99
2018-11-27T03:43:17.927Z,91.47
2018-11-27T03:44:17.902Z,91.93
2018-11-27T03:45:17.921Z,92.86
2018-11-27T03:46:17.876Z,92.76
2018-11-27T03:47:17.861Z,92.66
2018-11-27T03:48:18.342Z,93.28
2018-11-27T03:49:17.849Z,92.45
2018-11-27T03:50:17.833Z,93.43
2018-11-27T03:51:17.869Z,92.28
2018-11-27T03:52:17.813Z,93.01
2018-11-27T03:53:17.829Z,92.90
2018-11-27T03:54:17.793Z,92.80
2018-11-27T03:55:17.780Z,93.26
2018-11-27T03:56:17.773Z,92.90
2018-11-27T03:57:17.788Z,93.16
2018-11-27T03:58:17.778Z,93.01
2018-11-27T03:59:17.738Z,92.84
2018-11-27T04:00:17.731Z,93.05
2018-11-27T04:01:17.722Z,92.84
2018-11-27T04:02:17.714Z,92.22
2018-11-27T04:03:17.742Z,92.78
2018-11-27T04:04:17.708Z,92.47
2018-11-27T04:05:17.674Z,92.63
2018-11-27T04:06:17.687Z,93.26
2018-11-27T04:07:17.650Z,92.57
2018-11-27T04:08:17.648Z,92.68
2018-11-27T04:09:17.674Z,92.36
2018-11-27T04:10:17.635Z,92.36
2018-11-27T04:11:17.610Z,92.99
2018-11-27T04:12:17.601Z,93.30
2018-11-27T04:13:17.591Z,93.51
2018-11-27T04:14:17.588Z,92.57
2018-11-27T04:15:17.619Z,93.51
2018-11-27T04:16:17.562Z,93.76
2018-11-27T04:17:17.551Z,93.62
2018-11-27T04:18:17.537Z,94.18
2018-11-27T04:19:17.528Z,94.28
2018-11-27T04:20:17.574Z,94.07
2018-11-27T04:21:17.549Z,94.90
2018-11-27T04:22:17.497Z,94.34
2018-11-27T04:23:17.480Z,95.01
2018-11-27T04:24:17.476Z,94.55
2018-11-27T04:25:17.470Z,95.01
2018-11-27T04:26:17.509Z,94.90
2018-11-27T04:27:17.448Z,95.53
2018-11-27T04:28:17.455Z,95.73
2018-11-27T04:29:17.418Z,95.53
2018-11-27T04:30:17.407Z,95.63
2018-11-27T04:31:17.423Z,95.94
2018-11-27T04:32:17.396Z,95.63
2018-11-27T04:33:17.380Z,96.25
2018-11-27T04:34:17.390Z,96.04
2018-11-27T04:35:17.364Z,96.98
2018-11-27T04:36:17.382Z,96.88
2018-11-27T04:37:17.337Z,96.57
2018-11-27T04:38:17.324Z,96.98
2018-11-27T04:39:17.314Z,96.98
2018-11-27T04:40:17.350Z,96.78
2018-11-27T04:41:17.295Z,96.82
2018-11-27T04:42:17.313Z,96.78
2018-11-27T04:43:17.271Z,96.67
2018-11-27T04:44:17.262Z,96.88
2018-11-27T04:45:17.247Z,96.61
2018-11-27T04:46:17.251Z,96.41
2018-11-27T04:47:17.237Z,96.92
2018-11-27T04:48:17.244Z,96.92
2018-11-27T04:49:17.205Z,95.99
2018-11-27T04:50:17.209Z,95.83
2018-11-27T04:51:17.189Z,97.07
2018-11-27T04:52:17.239Z,96.82
2018-11-27T04:53:17.196Z,97.17
2018-11-27T04:54:17.155Z,96.97
2018-11-27T04:55:17.145Z,97.17
2018-11-27T04:56:17.134Z,97.44
2018-11-27T04:57:17.119Z,97.55
2018-11-27T04:58:17.125Z,97.17
2018-11-27T04:59:17.166Z,97.07
2018-11-27T05:00:17.110Z,96.86
2018-11-27T05:01:17.078Z,97.28
2018-11-27T05:02:17.068Z,97.07
2018-11-27T05:03:17.052Z,97.91
2018-11-27T05:04:17.049Z,97.59
2018-11-27T05:05:17.071Z,97.91
2018-11-27T05:06:17.060Z,98.01
2018-11-27T05:07:17.016Z,97.85
2018-11-27T05:08:16.999Z,97.95
2018-11-27T05:09:16.991Z,97.74
2018-11-27T05:10:17.006Z,97.74
2018-11-27T05:11:16.970Z,97.43
2018-11-27T05:12:16.988Z,97.64
2018-11-27T05:13:16.950Z,98.36
2018-11-27T05:14:16.939Z,98.57
2018-11-27T05:15:16.969Z,98.78
2018-11-27T05:16:16.913Z,99.10
2018-11-27T05:17:16.907Z,99.20
2018-11-27T05:18:16.943Z,98.78
2018-11-27T05:19:16.900Z,98.93
2018-11-27T05:20:16.881Z,98.93
2018-11-27T05:21:16.901Z,98.41
2018-11-27T05:22:16.854Z,98.62
2018-11-27T05:23:16.845Z,98.83
2018-11-27T05:24:16.920Z,99.08
2018-11-27T05:25:16.826Z,99.50
2018-11-27T05:26:16.806Z,99.87
2018-11-27T05:27:16.850Z,99.99
2018-11-27T05:28:16.793Z,99.99
2018-11-27T05:29:16.775Z,99.99
2018-11-27T05:30:16.818Z,99.99
2018-11-27T05:31:16.770Z,99.99
2018-11-27T05:32:16.789Z,99.99
2018-11-27T05:33:16.748Z,99.99
2018-11-27T05:34:16.723Z,99.99
2018-11-27T05:35:16.750Z,99.99
2018-11-27T05:36:16.705Z,99.99
2018-11-27T05:37:16.711Z,99.99
2018-11-27T05:38:16.740Z,99.99
2018-11-27T05:39:16.685Z,99.99
2018-11-27T05:40:16.682Z,99.99
2018-11-27T05:41:16.657Z,99.99
2018-11-27T05:42:16.632Z,99.99
2018-11-27T05:43:16.661Z,99.99
2018-11-27T05:44:16.656Z,99.99
2018-11-27T05:45:16.624Z,99.99
2018-11-27T05:46:16.595Z,99.99
2018-11-27T05:47:16.589Z,99.99
2018-11-27T05:48:16.597Z,99.99
2018-11-27T05:49:16.562Z,99.99
2018-11-27T05:50:16.554Z,99.99
2018-11-27T05:51:16.563Z,99.99
2018-11-27T05:52:16.535Z,99.99
2018-11-27T05:53:16.562Z,99.99
2018-11-27T05:54:16.507Z,99.99
2018-11-27T05:55:16.500Z,99.99
2018-11-27T05:56:16.490Z,99.99
2018-11-27T05:57:16.491Z,99.99
2018-11-27T05:58:16.501Z,99.99
2018-11-27T05:59:16.459Z,99.99
2018-11-27T06:00:16.443Z,99.99
2018-11-27T06:01:16.431Z,99.99
2018-11-27T06:02:16.444Z,99.99
2018-11-27T06:03:16.443Z,99.99
2018-11-27T06:04:16.422Z,99.99
2018-11-27T06:05:16.392Z,99.99
2018-11-27T06:06:16.398Z,99.99
2018-11-27T06:07:16.368Z,99.99
2018-11-27T06:08:16.355Z,99.99
2018-11-27T06:09:16.560Z,99.99
2018-11-27T06:10:16.366Z,99.99
2018-11-27T06:11:16.334Z,99.99
2018-11-27T06:12:16.314Z,99.99
2018-11-27T06:13:16.305Z,99.99
2018-11-27T06:14:16.301Z,99.99
2018-11-27T06:15:16.308Z,99.99
2018-11-27T06:16:16.303Z,99.99
2018-11-27T06:17:16.272Z,99.99
2018-11-27T06:18:16.250Z,99.99
2018-11-27T06:19:16.240Z,99.99
2018-11-27T06:20:16.254Z,99.99
2018-11-27T06:21:16.221Z,99.99
2018-11-27T06:22:16.242Z,99.99
2018-11-27T06:23:16.201Z,99.99
2018-11-27T06:24:16.186Z,99.99
2018-11-27T06:25:16.204Z,99.99
2018-11-27T06:26:16.170Z,99.99
2018-11-27T06:27:16.156Z,99.99
2018-11-27T06:28:16.147Z,99.99
2018-11-27T06:29:16.424Z,99.99
2018-11-27T06:30:16.156Z,99.99
2018-11-27T06:31:16.120Z,99.99
2018-11-27T06:32:21.289Z,99.99
2018-11-27T06:33:17.108Z,99.99
2018-11-27T06:34:16.082Z,99.99
2018-11-27T06:35:16.197Z,99.99
2018-11-27T06:36:16.101Z,99.99
2018-11-27T06:37:16.054Z,99.99
2018-11-27T06:38:16.037Z,99.99
2018-11-27T06:39:16.026Z,99.99
2018-11-27T06:40:16.027Z,99.99
2018-11-27T06:41:16.049Z,99.99
2018-11-27T06:42:16.047Z,99.99
2018-11-27T06:43:15.985Z,99.99
2018-11-27T06:44:15.979Z,99.99
2018-11-27T06:45:15.965Z,99.99
2018-11-27T06:46:15.992Z,99.99
2018-11-27T06:47:15.942Z,99.99
2018-11-27T06:48:15.949Z,99.99
2018-11-27T06:49:15.927Z,99.99
2018-11-27T06:50:15.920Z,99.99
2018-11-27T06:51:15.937Z,99.99
2018-11-27T06:52:15.902Z,99.99
2018-11-27T06:53:15.879Z,99.99
2018-11-27T06:54:15.871Z,99.99
2018-11-27T06:55:15.869Z,99.99
2018-11-27T06:56:15.844Z,99.99
2018-11-27T06:57:15.877Z,99.99
2018-11-27T06:58:15.830Z,99.99
2018-11-27T06:59:15.813Z,99.99
2018-11-27T07:00:15.804Z,99.99
2018-11-27T07:01:15.840Z,99.99
2018-11-27T07:02:15.789Z,99.99
2018-11-27T07:03:15.794Z,99.99
2018-11-27T07:04:15.759Z,99.99
2018-11-27T07:05:15.750Z,99.99
2018-11-27T07:06:15.743Z,99.99
2018-11-27T07:07:15.756Z,99.99
2018-11-27T07:08:15.747Z,99.99
2018-11-27T07:09:15.710Z,99.99
2018-11-27T07:10:15.702Z,99.99
2018-11-27T07:11:15.683Z,99.99
2018-11-27T07:12:15.674Z,99.99
2018-11-27T07:13:15.691Z,99.99
2018-11-27T07:14:15.701Z,99.99
2018-11-27T07:15:15.671Z,99.99
2018-11-27T07:16:15.634Z,99.99
2018-11-27T07:17:15.620Z,99.99
2018-11-27T07:18:15.609Z,99.99
2018-11-27T07:19:15.644Z,99.99
2018-11-27T07:20:15.588Z,99.99
2018-11-27T07:21:15.585Z,99.99
2018-11-27T07:22:15.581Z,99.99
2018-11-27T07:23:15.565Z,99.99
2018-11-27T07:24:15.569Z,99.99
2018-11-27T07:25:15.563Z,99.99
2018-11-27T07:26:15.529Z,99.99
2018-11-27T07:27:15.512Z,99.99
2018-11-27T07:28:15.506Z,99.99
2018-11-27T07:29:15.495Z,99.99
2018-11-27T07:30:15.514Z,99.99
2018-11-27T07:31:15.470Z,99.99
2018-11-27T07:32:15.470Z,99.99
2018-11-27T07:33:15.484Z,99.99
2018-11-27T07:34:15.440Z,99.99
2018-11-27T07:35:15.476Z,99.99
2018-11-27T07:36:15.417Z,99.99
2018-11-27T07:37:15.423Z,99.99
2018-11-27T07:38:15.411Z,99.99
2018-11-27T07:39:15.415Z,99.99
2018-11-27T07:40:15.377Z,99.99
2018-11-27T07:41:15.405Z,99.99
2018-11-27T07:42:15.363Z,99.99
2018-11-27T07:43:15.400Z,99.99
2018-11-27T07:44:15.331Z,99.99
2018-11-27T07:45:15.319Z,99.99
2018-11-27T07:46:15.342Z,99.99
2018-11-27T07:47:15.305Z,99.99
2018-11-27T07:48:15.295Z,99.99
2018-11-27T07:49:15.317Z,99.99
2018-11-27T07:50:15.314Z,99.99
2018-11-27T07:51:15.294Z,99.99
2018-11-27T07:52:15.245Z,99.99
2018-11-27T07:53:15.233Z,99.99
2018-11-27T07:54:15.245Z,99.99
2018-11-27T07:55:15.233Z,99.99
2018-11-27T07:56:15.244Z,99.99
2018-11-27T07:57:15.208Z,99.68
2018-11-27T07:58:15.179Z,99.16
2018-11-27T07:59:15.169Z,99.37
2018-11-27T08:00:15.164Z,99.37
2018-11-27T08:01:15.186Z,98.91
2018-11-27T08:02:15.150Z,98.23
2018-11-27T08:03:15.151Z,98.29
2018-11-27T08:04:15.116Z,97.77
2018-11-27T08:05:15.106Z,98.39
2018-11-27T08:06:15.107Z,98.29
2018-11-27T08:07:15.119Z,98.39
2018-11-27T08:08:15.076Z,98.03
2018-11-27T08:09:15.085Z,98.24
2018-11-27T08:10:15.056Z,97.93
2018-11-27T08:11:15.042Z,98.03
2018-11-27T08:12:15.033Z,98.66
2018-11-27T08:13:15.047Z,98.10
2018-11-27T08:14:15.012Z,97.99
2018-11-27T08:15:15.038Z,97.83
2018-11-27T08:16:15.002Z,96.75
2018-11-27T08:17:14.998Z,97.06
2018-11-27T08:18:15.041Z,96.44
2018-11-27T08:19:14.958Z,95.71
2018-11-27T08:20:14.969Z,95.29
2018-11-27T08:21:14.937Z,95.34
2018-11-27T08:22:14.924Z,95.29
2018-11-27T08:23:14.965Z,95.61
2018-11-27T08:24:14.905Z,95.50
2018-11-27T08:25:14.893Z,95.09
2018-11-27T08:26:14.888Z,95.19
2018-11-27T08:27:14.884Z,95.29
2018-11-27T08:28:14.932Z,95.56
2018-11-27T08:29:14.857Z,94.73
2018-11-27T08:30:14.843Z,94.78
2018-11-27T08:31:14.862Z,95.36
2018-11-27T08:32:14.835Z,95.46
2018-11-27T08:33:14.844Z,94.84
2018-11-27T08:34:14.829Z,94.21
2018-11-27T08:35:14.788Z,94.21
2018-11-27T08:36:14.793Z,94.01
2018-11-27T08:37:14.766Z,93.70
2018-11-27T08:38:14.758Z,94.01
2018-11-27T08:39:14.773Z,93.90
2018-11-27T08:40:14.780Z,94.11
2018-11-27T08:41:14.738Z,93.54
2018-11-27T08:42:14.717Z,93.44
2018-11-27T08:43:14.705Z,93.75
2018-11-27T08:44:14.724Z,94.06
2018-11-27T08:45:14.695Z,94.06
2018-11-27T08:46:14.722Z,93.75
2018-11-27T08:47:14.660Z,93.54
2018-11-27T08:48:14.653Z,93.59
2018-11-27T08:49:14.647Z,94.17
2018-11-27T08:50:14.670Z,93.90
2018-11-27T08:51:14.616Z,93.85
2018-11-27T08:52:14.683Z,93.13
2018-11-27T08:53:14.597Z,93.18
2018-11-27T08:54:14.590Z,93.02
2018-11-27T08:55:14.574Z,93.18
2018-11-27T08:56:14.589Z,93.02
2018-11-27T08:57:14.553Z,93.02
2018-11-27T08:58:14.579Z,93.13
2018-11-27T08:59:14.537Z,92.93
2018-11-27T09:00:14.520Z,92.82
2018-11-27T09:01:14.538Z,93.13
2018-11-27T09:02:14.497Z,91.89
2018-11-27T09:03:14.486Z,92.82
2018-11-27T09:04:14.496Z,92.51
2018-11-27T09:05:14.520Z,92.30
2018-11-27T09:06:14.479Z,92.20
2018-11-27T09:07:14.442Z,92.51
2018-11-27T09:08:14.432Z,92.51
2018-11-27T09:09:14.421Z,92.41
2018-11-27T09:10:14.437Z,92.41
2018-11-27T09:11:14.455Z,92.66
2018-11-27T09:12:14.394Z,92.66
2018-11-27T09:13:14.687Z,92.55
2018-11-27T09:14:14.372Z,92.66
2018-11-27T09:15:14.364Z,92.55
2018-11-27T09:16:14.347Z,92.66
2018-11-27T09:17:14.379Z,92.76
2018-11-27T09:18:14.328Z,92.86
2018-11-27T09:19:14.317Z,92.35
2018-11-27T09:20:14.307Z,93.18
2018-11-27T09:21:14.304Z,93.49
2018-11-27T09:22:14.291Z,93.53
2018-11-27T09:23:14.335Z,93.43
2018-11-27T09:24:14.262Z,92.90
2018-11-27T09:25:14.255Z,93.43
2018-11-27T09:26:14.245Z,92.90
2018-11-27T09:27:14.235Z,93.12
2018-11-27T09:28:14.250Z,92.90
2018-11-27T09:29:14.240Z,93.12
2018-11-27T09:30:14.198Z,91.86
2018-11-27T09:31:14.189Z,92.49
2018-11-27T09:32:14.178Z,92.59
2018-11-27T09:33:14.199Z,92.74
2018-11-27T09:34:14.157Z,92.59
2018-11-27T09:35:14.166Z,92.07
2018-11-27T09:36:14.135Z,90.62
2018-11-27T09:37:14.127Z,90.37
2018-11-27T09:38:14.118Z,89.34
2018-11-27T09:39:14.133Z,88.71
2018-11-27T09:40:14.096Z,88.78
2018-11-27T09:41:14.148Z,88.36
2018-11-27T09:42:14.073Z,88.67
2018-11-27T09:43:14.074Z,88.67
2018-11-27T09:44:14.054Z,87.95
2018-11-27T09:45:14.071Z,88.53
2018-11-27T09:46:14.031Z,88.46
2018-11-27T09:47:14.032Z,89.09
2018-11-27T09:48:14.010Z,88.88
2018-11-27T09:49:14.016Z,88.21
2018-11-27T09:50:14.016Z,88.21
2018-11-27T09:51:13.978Z,88.32
2018-11-27T09:52:13.967Z,88.32
2018-11-27T09:53:13.984Z,88.01
2018-11-27T09:54:13.945Z,88.11
2018-11-27T09:55:13.971Z,87.59
2018-11-27T09:56:13.925Z,87.49
2018-11-27T09:57:13.919Z,87.24
2018-11-27T09:58:13.907Z,87.97
2018-11-27T09:59:13.966Z,87.20
2018-11-27T10:00:13.885Z,86.99
2018-11-27T10:01:13.900Z,87.57
2018-11-27T10:02:13.862Z,85.92
2018-11-27T10:03:13.856Z,85.57
2018-11-27T10:04:13.839Z,85.47
2018-11-27T10:05:13.868Z,83.61
2018-11-27T10:06:13.841Z,84.50
2018-11-27T10:07:13.812Z,84.91
2018-11-27T10:08:13.795Z,84.56
2018-11-27T10:09:13.783Z,84.56
2018-11-27T10:10:13.775Z,83.42
2018-11-27T10:11:13.833Z,84.66
2018-11-27T10:12:13.756Z,83.18
2018-11-27T10:13:13.746Z,83.28
2018-11-27T10:14:13.765Z,83.28
2018-11-27T10:15:13.721Z,84.52
2018-11-27T10:16:13.710Z,84.69
2018-11-27T10:17:13.777Z,83.25
2018-11-27T10:18:13.691Z,83.25
2018-11-27T10:19:13.679Z,81.28
2018-11-27T10:20:13.671Z,82.89
2018-11-27T10:21:13.659Z,82.69
2018-11-27T10:22:13.642Z,83.31
2018-11-27T10:23:13.736Z,81.24
2018-11-27T10:24:13.622Z,78.97
2018-11-27T10:25:13.611Z,78.66
2018-11-27T10:26:13.603Z,81.31
2018-11-27T10:27:13.591Z,81.21
2018-11-27T10:28:13.609Z,79.66
2018-11-27T10:29:13.599Z,80.18
2018-11-27T10:30:13.558Z,78.21
2018-11-27T10:31:13.550Z,79.66
2018-11-27T10:32:13.541Z,81.21
2018-11-27T10:33:13.545Z,79.97
2018-11-27T10:34:13.553Z,81.00
2018-11-27T10:35:13.508Z,81.89
2018-11-27T10:36:13.530Z,79.62
2018-11-27T10:37:13.491Z,79.21
2018-11-27T10:38:13.472Z,77.76
2018-11-27T10:39:13.486Z,75.39
2018-11-27T10:40:13.449Z,77.35
2018-11-27T10:41:13.439Z,77.25
2018-11-27T10:42:13.836Z,78.49
2018-11-27T10:43:13.415Z,75.81
2018-11-27T10:44:13.433Z,75.70
2018-11-27T10:45:13.403Z,76.39
2018-11-27T10:46:13.388Z,77.01
2018-11-27T10:47:13.375Z,77.62
2018-11-27T10:48:13.393Z,77.94
2018-11-27T10:49:13.398Z,77.73
2018-11-27T10:50:13.348Z,75.56
2018-11-27T10:51:13.346Z,76.76
2018-11-27T10:52:13.318Z,74.53
2018-11-27T10:53:13.314Z,73.91
2018-11-27T10:54:13.421Z,74.63
2018-11-27T10:55:13.287Z,73.91
2018-11-27T10:56:13.285Z,73.40
2018-11-27T10:57:13.265Z,73.68
2018-11-27T10:58:13.263Z,74.50
2018-11-27T10:59:13.272Z,74.08
2018-11-27T11:00:13.257Z,73.47
2018-11-27T11:01:13.221Z,71.20
2018-11-27T11:02:13.213Z,72.47
2018-11-27T11:03:13.206Z,70.37
2018-11-27T11:04:13.226Z,70.68
2018-11-27T11:05:13.185Z,70.58
2018-11-27T11:06:13.169Z,71.82
2018-11-27T11:07:13.198Z,70.58
2018-11-27T11:08:13.148Z,69.65
2018-11-27T11:09:13.139Z,69.52
2018-11-27T11:10:13.155Z,71.00
2018-11-27T11:11:13.112Z,70.79
2018-11-27T11:12:13.116Z,72.54
2018-11-27T11:13:13.124Z,72.75
2018-11-27T11:14:13.084Z,70.28
2018-11-27T11:15:13.101Z,70.55
2018-11-27T11:16:13.069Z,70.28
2018-11-27T11:17:13.052Z,68.83
2018-11-27T11:18:13.054Z,68.93
2018-11-27T11:19:18.255Z,69.04
2018-11-27T11:20:14.094Z,69.55
2018-11-27T11:21:13.011Z,68.73
2018-11-27T11:22:13.015Z,68.73
2018-11-27T11:23:12.985Z,69.45
2018-11-27T11:24:12.973Z,69.96
2018-11-27T11:25:12.999Z,70.17
2018-11-27T11:26:13.036Z,70.48
2018-11-27T11:27:12.954Z,69.76
2018-11-27T11:28:12.936Z,70.89
2018-11-27T11:29:12.920Z,71.61
2018-11-27T11:30:12.914Z,70.79
2018-11-27T11:31:12.937Z,73.43
2018-11-27T11:32:12.885Z,72.09
2018-11-27T11:33:12.937Z,70.45
2018-11-27T11:34:12.870Z,71.06
2018-11-27T11:35:12.857Z,71.78
2018-11-27T11:36:12.879Z,70.34
2018-11-27T11:37:12.836Z,70.24
2018-11-27T11:38:12.824Z,69.01
2018-11-27T11:39:12.828Z,69.52
2018-11-27T11:40:12.798Z,71.78
2018-11-27T11:41:12.798Z,70.55
2018-11-27T11:42:12.807Z,72.41
2018-11-27T11:43:12.780Z,72.78
2018-11-27T11:44:12.764Z,70.31
2018-11-27T11:45:12.828Z,70.42
2018-11-27T11:46:12.741Z,69.28
2018-11-27T11:47:12.727Z,68.66
2018-11-27T11:48:12.755Z,69.59
2018-11-27T11:49:12.723Z,69.49
2018-11-27T11:50:12.710Z,70.31
2018-11-27T11:51:12.685Z,69.79
2018-11-27T11:52:12.801Z,69.90
2018-11-27T11:53:12.686Z,70.00
2018-11-27T11:54:12.648Z,70.00
2018-11-27T11:55:12.648Z,70.83
2018-11-27T11:56:12.645Z,69.70
2018-11-27T11:57:12.621Z,68.98
2018-11-27T11:58:12.681Z,70.10
2018-11-27T11:59:12.611Z,70.72
2018-11-27T12:00:12.584Z,68.77
2018-11-27T12:01:12.575Z,69.59
2018-11-27T12:02:12.568Z,69.07
2018-11-27T12:03:12.596Z,68.77
2018-11-27T12:04:12.550Z,68.46
2018-11-27T12:05:12.544Z,70.62
2018-11-27T12:06:12.623Z,70.10
2018-11-27T12:07:12.517Z,69.70
2018-11-27T12:08:12.497Z,69.59
2018-11-27T12:09:12.534Z,70.52
2018-11-27T12:10:12.482Z,71.24
2018-11-27T12:11:12.518Z,69.62
2018-11-27T12:12:12.461Z,67.77
2018-11-27T12:13:12.444Z,69.93
2018-11-27T12:14:12.486Z,69.83
2018-11-27T12:15:12.445Z,70.34
2018-11-27T12:16:12.417Z,68.39
2018-11-27T12:17:12.435Z,69.45
2018-11-27T12:18:12.400Z,69.04
2018-11-27T12:19:12.420Z,67.97
2018-11-27T12:20:12.406Z,68.42
2018-11-27T12:21:12.384Z,68.21
2018-11-27T12:22:12.349Z,68.01
2018-11-27T12:23:12.359Z,68.32
2018-11-27T12:24:12.323Z,70.10
2018-11-27T12:25:12.319Z,70.58
2018-11-27T12:26:12.378Z,70.92
2018-11-27T12:27:12.298Z,70.00
2018-11-27T12:28:14.624Z,69.96
2018-11-27T12:29:12.311Z,70.28
2018-11-27T12:30:12.309Z,68.01
2018-11-27T12:31:12.276Z,68.01
2018-11-27T12:32:12.243Z,69.96
2018-11-27T12:33:12.298Z,70.58
2018-11-27T12:34:12.223Z,71.20
2018-11-27T12:35:12.211Z,71.00
2018-11-27T12:36:12.225Z,67.90
2018-11-27T12:37:12.240Z,68.52
2018-11-27T12:38:12.180Z,69.04
2018-11-27T12:39:12.164Z,68.32
2018-11-27T12:40:12.291Z,68.52
2018-11-27T12:41:12.219Z,67.80
2018-11-27T12:42:12.160Z,67.80
2018-11-27T12:43:12.125Z,68.21
2018-11-27T12:44:12.168Z,69.04
2018-11-27T12:45:12.099Z,67.90
2018-11-27T12:46:12.096Z,67.60
2018-11-27T12:47:12.107Z,67.57
2018-11-27T12:48:12.133Z,69.66
2018-11-27T12:49:12.060Z,70.07
2018-11-27T12:50:12.045Z,66.99
2018-11-27T12:51:12.520Z,67.60
2018-11-27T12:52:12.022Z,68.56